Terminal Aerodrome Forecast
Issued by NWS

Home | Current Version | Previous Version | Text Only | Print | Product List | Glossary On
Versions: 1 2 3 4 5 6 7 8 9 10 11 12 13 14 15 16 17 18 19 20 21 22 23 24 25 26 27 28 29 30
000
FTUS41 KGYX 251720
TAFLEB
TAF
KLEB 251720Z 2518/2618 00000KT P6SM SKC
     FM252100 28009G16KT P6SM OVC250
     FM252300 24006KT P6SM BKN250
     FM260600 36001KT 4SM BR SCT250
     FM260800 00000KT 1 1/2SM BR OVC250
     FM261200 00000KT 6SM BR OVC250=

USA.gov is the U.S. government's official web portal to all federal, state and local government web resources and services.